createdAt,value
2023-03-04T00:00:10.096Z,20.25
2023-03-04T00:02:40.060Z,24.83
2023-03-04T00:05:09.785Z,19.60
2023-03-04T00:07:38.213Z,25.17
2023-03-04T00:10:08.250Z,26.97
2023-03-04T00:12:36.751Z,25.13
2023-03-04T00:15:05.857Z,26.33
2023-03-04T00:17:34.374Z,22.63
2023-03-04T00:20:04.271Z,26.83
2023-03-04T00:22:32.660Z,22.48
2023-03-04T00:25:01.053Z,25.73
2023-03-04T00:27:29.489Z,26.65
2023-03-04T00:29:58.593Z,26.83
2023-03-04T00:32:27.104Z,23.17
2023-03-04T00:34:55.552Z,24.83
2023-03-04T00:37:25.660Z,21.63
2023-03-04T00:39:54.114Z,23.50
2023-03-04T00:42:22.664Z,20.80
2023-03-04T00:44:51.572Z,22.50
2023-03-04T00:47:20.008Z,23.53
2023-03-04T00:49:48.515Z,23.93
2023-03-04T00:52:16.930Z,25.48
2023-03-04T00:54:46.723Z,27.55
2023-03-04T00:57:15.162Z,21.70
2023-03-04T00:59:44.535Z,25.83
2023-03-04T01:02:13.592Z,18.93
2023-03-04T01:04:43.079Z,22.47
2023-03-04T01:07:11.766Z,21.00
2023-03-04T01:09:40.198Z,24.70
2023-03-04T01:12:10.175Z,24.83
2023-03-04T01:14:38.577Z,21.30
2023-03-04T01:17:07.046Z,22.50
2023-03-04T01:19:35.522Z,17.70
2023-03-04T01:22:04.351Z,19.13
2023-03-04T01:24:32.897Z,25.67
2023-03-04T01:27:01.355Z,21.03
2023-03-04T01:29:31.127Z,20.30
2023-03-04T01:31:59.614Z,27.90
2023-03-04T01:34:28.034Z,20.47
2023-03-04T01:36:56.503Z,19.00
2023-03-04T01:39:24.919Z,20.47
2023-03-04T01:41:53.360Z,18.70
2023-03-04T01:44:21.928Z,17.17
2023-03-04T01:46:55.638Z,18.27
2023-03-04T01:49:24.684Z,19.23
2023-03-04T01:51:55.357Z,18.50
2023-03-04T01:54:24.595Z,16.30
2023-03-04T01:56:54.373Z,19.23
2023-03-04T01:59:26.121Z,18.40
2023-03-04T02:01:59.729Z,18.97
2023-03-04T02:04:32.342Z,21.10
2023-03-04T02:07:02.270Z,21.53
2023-03-04T02:09:31.746Z,18.43
2023-03-04T02:12:00.725Z,18.60
2023-03-04T02:14:29.268Z,26.37
2023-03-04T02:16:59.131Z,20.10
2023-03-04T02:19:43.209Z,20.53
2023-03-04T02:22:11.938Z,23.38
2023-03-04T02:24:46.873Z,19.90
2023-03-04T02:27:16.824Z,18.33
2023-03-04T02:29:45.421Z,16.03
2023-03-04T02:32:15.736Z,16.43
2023-03-04T02:34:49.819Z,15.40
2023-03-04T02:37:19.975Z,19.00
2023-03-04T02:39:50.686Z,16.13
2023-03-04T02:42:20.523Z,16.63
2023-03-04T02:44:50.586Z,13.53
2023-03-04T02:47:20.331Z,16.30
2023-03-04T02:49:49.037Z,19.80
2023-03-04T02:52:22.357Z,19.43
2023-03-04T02:54:50.850Z,14.97
2023-03-04T02:57:20.752Z,11.10
2023-03-04T02:59:49.218Z,14.57
2023-03-04T03:02:17.716Z,13.70
2023-03-04T03:04:46.257Z,14.17
2023-03-04T03:07:14.700Z,12.77
2023-03-04T03:09:43.172Z,15.27
2023-03-04T03:12:11.628Z,14.23
2023-03-04T03:14:41.446Z,14.23
2023-03-04T03:17:10.493Z,20.23
2023-03-04T03:19:38.904Z,19.63
2023-03-04T03:22:07.541Z,15.97
2023-03-04T03:24:36.054Z,29.15
2023-03-04T03:27:04.570Z,21.53
2023-03-04T03:29:33.034Z,20.83
2023-03-04T03:32:02.954Z,17.20
2023-03-04T03:34:31.659Z,18.53
2023-03-04T03:37:00.107Z,20.20
2023-03-04T03:39:28.530Z,23.73
2023-03-04T03:41:56.933Z,21.93
2023-03-04T03:44:25.370Z,21.63
2023-03-04T03:46:53.780Z,27.47
2023-03-04T03:49:23.570Z,25.53
2023-03-04T03:51:52.000Z,28.57
2023-03-04T03:54:20.423Z,30.17
2023-03-04T03:56:48.833Z,28.00
2023-03-04T03:59:17.259Z,32.07
2023-03-04T04:01:45.710Z,31.57
2023-03-04T04:04:14.123Z,29.67
2023-03-04T04:06:43.940Z,33.97
2023-03-04T04:09:12.348Z,30.00
2023-03-04T04:11:40.811Z,33.93
2023-03-04T04:14:11.002Z,30.50
2023-03-04T04:16:39.609Z,34.50
2023-03-04T04:19:08.432Z,30.87
2023-03-04T04:21:36.865Z,32.10
2023-03-04T04:24:06.742Z,32.33
2023-03-04T04:26:35.210Z,35.00
2023-03-04T04:29:03.643Z,32.85
2023-03-04T04:31:32.105Z,34.10
2023-03-04T04:34:00.538Z,37.53
2023-03-04T04:36:29.241Z,34.88
2023-03-04T04:38:58.174Z,35.72
2023-03-04T04:41:32.488Z,34.88
2023-03-04T04:44:00.926Z,31.53
2023-03-04T04:46:30.018Z,30.67
2023-03-04T04:48:58.725Z,33.40
2023-03-04T04:51:27.312Z,36.50
2023-03-04T04:53:55.909Z,37.97
2023-03-04T04:56:27.015Z,33.60
2023-03-04T04:58:58.477Z,38.15
2023-03-04T05:01:28.205Z,34.85
2023-03-04T05:03:57.127Z,37.00
2023-03-04T05:06:26.337Z,29.10
2023-03-04T05:08:55.102Z,34.58
2023-03-04T05:11:23.675Z,35.97
2023-03-04T05:13:53.503Z,32.20
2023-03-04T05:16:21.945Z,38.53
2023-03-04T05:18:50.426Z,39.35
2023-03-04T05:21:18.798Z,29.02
2023-03-04T05:23:48.054Z,35.47
2023-03-04T05:26:19.306Z,35.72
2023-03-04T05:28:47.862Z,29.20
2023-03-04T05:31:18.028Z,34.47
2023-03-04T05:33:46.552Z,36.60
2023-03-04T05:36:15.007Z,34.70
2023-03-04T05:38:43.476Z,44.80
2023-03-04T05:41:11.944Z,32.80
2023-03-04T05:43:42.965Z,30.85
2023-03-04T05:46:18.748Z,34.55
2023-03-04T05:48:47.563Z,31.75
2023-03-04T05:51:16.024Z,35.25
2023-03-04T05:53:44.428Z,35.75
2023-03-04T05:56:15.544Z,35.88
2023-03-04T05:58:45.002Z,33.70
2023-03-04T06:01:13.414Z,32.47
2023-03-04T06:03:43.900Z,29.55
2023-03-04T06:06:12.710Z,33.47
2023-03-04T06:08:41.176Z,33.03
2023-03-04T06:11:09.638Z,32.53
2023-03-04T06:13:38.313Z,32.55
2023-03-04T06:16:07.883Z,31.80
2023-03-04T06:18:36.304Z,35.80
2023-03-04T06:21:06.876Z,30.60
2023-03-04T06:23:35.342Z,31.38
2023-03-04T06:26:03.776Z,33.38
2023-03-04T06:28:32.211Z,43.88
2023-03-04T06:31:00.647Z,32.08
2023-03-04T06:33:29.078Z,32.60
2023-03-04T06:35:58.599Z,32.58
2023-03-04T06:38:28.686Z,28.85
2023-03-04T06:40:57.740Z,31.50
2023-03-04T06:43:26.485Z,33.30
2023-03-04T06:45:55.076Z,27.42
2023-03-04T06:48:23.505Z,34.33
2023-03-04T06:50:52.022Z,33.83
2023-03-04T06:53:20.492Z,34.30
2023-03-04T06:55:50.621Z,30.58
2023-03-04T06:58:19.053Z,28.55
2023-03-04T07:00:47.607Z,35.90
2023-03-04T07:03:16.011Z,35.53
2023-03-04T07:05:44.850Z,32.13
2023-03-04T07:08:13.424Z,31.02
2023-03-04T07:10:42.159Z,30.45
2023-03-04T07:13:11.965Z,32.47
2023-03-04T07:15:40.420Z,39.28
2023-03-04T07:18:08.882Z,35.05
2023-03-04T07:20:37.742Z,34.45
2023-03-04T07:23:06.204Z,41.20
2023-03-04T07:25:34.669Z,33.33
2023-03-04T07:28:03.124Z,34.95
2023-03-04T07:30:33.100Z,39.28
2023-03-04T07:33:01.537Z,36.47
2023-03-04T07:35:30.329Z,35.25
2023-03-04T07:37:58.796Z,40.40
2023-03-04T07:40:27.371Z,34.15
2023-03-04T07:42:57.161Z,35.47
2023-03-04T07:45:26.254Z,41.40
2023-03-04T07:47:56.308Z,34.85
2023-03-04T07:50:24.741Z,31.35
2023-03-04T07:52:53.555Z,34.60
2023-03-04T07:55:22.211Z,33.42
2023-03-04T07:57:50.639Z,36.65
2023-03-04T08:00:20.798Z,33.45
2023-03-04T08:02:49.277Z,33.47
2023-03-04T08:05:21.865Z,34.97
2023-03-04T08:07:50.353Z,34.08
2023-03-04T08:10:19.216Z,31.02
2023-03-04T08:12:47.669Z,39.80
2023-03-04T08:15:16.358Z,28.50
2023-03-04T08:17:44.840Z,31.65
2023-03-04T08:20:14.545Z,28.52
2023-03-04T08:22:44.312Z,32.45
2023-03-04T08:25:12.974Z,27.77
2023-03-04T08:27:41.467Z,31.17
2023-03-04T08:30:12.522Z,39.75
2023-03-04T08:32:41.073Z,31.02
2023-03-04T08:35:09.967Z,30.67
2023-03-04T08:37:38.370Z,31.02
2023-03-04T08:40:10.564Z,32.63
2023-03-04T08:42:39.119Z,34.00
2023-03-04T08:45:09.278Z,26.80
2023-03-04T08:47:37.824Z,34.08
2023-03-04T08:50:07.866Z,30.25
2023-03-04T08:52:36.344Z,29.98
2023-03-04T08:55:05.466Z,29.90
2023-03-04T08:57:35.325Z,24.88
2023-03-04T09:00:03.808Z,29.77
2023-03-04T09:02:32.225Z,23.58
2023-03-04T09:05:00.652Z,29.33
2023-03-04T09:07:29.106Z,29.25
2023-03-04T09:09:57.651Z,22.88
2023-03-04T09:12:26.262Z,24.02
2023-03-04T09:15:10.283Z,23.80
2023-03-04T09:17:40.789Z,36.25
2023-03-04T09:20:12.096Z,21.15
2023-03-04T09:22:41.913Z,26.15
2023-03-04T09:25:13.286Z,21.98
2023-03-04T09:27:42.139Z,23.50
2023-03-04T09:30:14.034Z,18.85
2023-03-04T09:32:42.539Z,18.83
2023-03-04T09:35:11.276Z,21.02
2023-03-04T09:37:41.458Z,19.75
2023-03-04T09:40:17.411Z,15.57
2023-03-04T09:42:49.464Z,19.25
2023-03-04T09:45:24.377Z,16.95
2023-03-04T09:47:55.710Z,14.05
2023-03-04T09:50:24.717Z,18.33
2023-03-04T09:53:08.805Z,13.90
2023-03-04T09:55:41.933Z,12.52
2023-03-04T09:58:29.200Z,12.77
2023-03-04T10:01:05.505Z,12.75
2023-03-04T10:03:44.129Z,12.48
2023-03-04T10:06:17.531Z,19.10
2023-03-04T10:08:55.201Z,14.88
2023-03-04T10:11:28.844Z,13.30
2023-03-04T10:14:17.657Z,13.63
2023-03-04T10:16:52.888Z,14.73
2023-03-04T10:19:42.984Z,12.68
2023-03-04T10:22:22.024Z,11.65
2023-03-04T10:24:50.827Z,11.38
2023-03-04T10:27:21.051Z,12.52
2023-03-04T10:29:49.484Z,15.60
2023-03-04T10:32:22.016Z,12.45
2023-03-04T10:34:50.595Z,10.43
2023-03-04T10:37:19.078Z,13.77
2023-03-04T10:39:49.743Z,10.05
2023-03-04T10:42:37.402Z,10.75
2023-03-04T10:45:25.935Z,16.52
2023-03-04T10:47:58.847Z,10.80
2023-03-04T10:50:29.693Z,12.20
2023-03-04T10:52:58.923Z,12.00
2023-03-04T10:55:31.332Z,11.55
2023-03-04T10:58:07.454Z,10.80
2023-03-04T11:00:37.867Z,11.88
2023-03-04T11:03:31.368Z,22.58
2023-03-04T11:06:13.164Z,14.85
2023-03-04T11:08:43.470Z,14.30
2023-03-04T11:11:26.792Z,15.82
2023-03-04T11:13:59.661Z,16.65
2023-03-04T11:16:31.258Z,13.40
2023-03-04T11:19:06.386Z,16.95
2023-03-04T11:21:41.427Z,12.68
2023-03-04T11:24:29.908Z,14.38
2023-03-04T11:27:04.682Z,20.67
2023-03-04T11:29:39.855Z,14.32
2023-03-04T11:32:15.826Z,14.75
2023-03-04T11:34:52.791Z,14.65
2023-03-04T11:37:30.541Z,13.80
2023-03-04T11:40:05.542Z,12.90
2023-03-04T11:42:42.302Z,11.98
2023-03-04T11:45:27.765Z,15.68
2023-03-04T11:48:05.853Z,16.92
2023-03-04T11:50:49.907Z,11.52
2023-03-04T11:53:45.811Z,12.80
2023-03-04T11:56:31.798Z,14.50
2023-03-04T11:59:26.656Z,15.88
2023-03-04T12:02:13.580Z,17.05
2023-03-04T12:05:27.041Z,14.60
2023-03-04T12:08:21.993Z,13.32
2023-03-04T12:11:04.252Z,32.58
2023-03-04T12:13:58.669Z,13.00
2023-03-04T12:16:54.828Z,11.32
2023-03-04T12:19:38.471Z,14.27
2023-03-04T12:22:31.291Z,17.58
2023-03-04T12:25:38.766Z,17.27
2023-03-04T12:28:36.394Z,14.75
2023-03-04T12:31:36.583Z,11.80
2023-03-04T12:35:05.846Z,13.55
2023-03-04T12:38:08.330Z,12.65
2023-03-04T12:40:50.283Z,14.02
2023-03-04T12:43:41.596Z,14.55
2023-03-04T12:46:38.691Z,29.63
2023-03-04T12:49:30.354Z,12.05
2023-03-04T12:52:10.997Z,13.45
2023-03-04T12:54:44.411Z,13.60
2023-03-04T12:57:18.726Z,14.60
2023-03-04T13:00:00.518Z,15.02
2023-03-04T13:03:05.131Z,13.73
2023-03-04T13:05:49.120Z,13.80
2023-03-04T13:08:32.100Z,13.80
2023-03-04T13:11:24.395Z,16.50
2023-03-04T13:14:05.816Z,15.02
2023-03-04T13:16:43.492Z,16.25
2023-03-04T13:19:47.948Z,15.13
2023-03-04T13:22:43.211Z,14.18
2023-03-04T13:25:36.931Z,14.18
2023-03-04T13:28:23.722Z,15.77
2023-03-04T13:31:24.431Z,16.40
2023-03-04T13:34:05.672Z,16.80
2023-03-04T13:37:00.336Z,15.60
2023-03-04T13:39:38.114Z,13.63
2023-03-04T13:42:42.061Z,13.43
2023-03-04T13:45:35.621Z,16.58
2023-03-04T13:48:24.792Z,14.68
2023-03-04T13:50:53.892Z,19.00
2023-03-04T13:53:50.070Z,14.90
2023-03-04T13:56:31.478Z,17.00
2023-03-04T13:59:27.893Z,15.63
2023-03-04T14:02:11.442Z,19.38
2023-03-04T14:04:42.956Z,15.68
2023-03-04T14:07:28.265Z,15.65
2023-03-04T14:10:02.740Z,18.20
2023-03-04T14:12:34.496Z,17.63
2023-03-04T14:15:07.052Z,14.18
2023-03-04T14:17:37.824Z,25.98
2023-03-04T14:20:26.813Z,16.92
2023-03-04T14:22:56.376Z,15.13
2023-03-04T14:25:28.139Z,17.27
2023-03-04T14:28:08.028Z,17.20
2023-03-04T14:30:43.241Z,13.95
2023-03-04T14:33:20.119Z,13.63
2023-03-04T14:35:53.339Z,15.45
2023-03-04T14:38:29.896Z,14.93
2023-03-04T14:41:04.178Z,15.90
2023-03-04T14:43:37.616Z,13.73
2023-03-04T14:46:13.814Z,23.08
2023-03-04T14:48:50.839Z,13.77
2023-03-04T14:51:42.914Z,14.15
2023-03-04T14:54:36.810Z,13.70
2023-03-04T14:57:26.195Z,19.15
2023-03-04T14:59:56.218Z,15.73
2023-03-04T15:02:33.469Z,18.10
2023-03-04T15:05:16.765Z,18.05
2023-03-04T15:07:53.682Z,17.65
2023-03-04T15:10:25.639Z,17.90
2023-03-04T15:13:00.080Z,16.05
2023-03-04T15:15:42.716Z,17.25
2023-03-04T15:18:26.311Z,16.15
2023-03-04T15:20:59.542Z,16.90
2023-03-04T15:23:32.328Z,14.77
2023-03-04T15:26:03.271Z,16.75
2023-03-04T15:28:37.281Z,17.15
2023-03-04T15:31:07.764Z,19.05
2023-03-04T15:33:36.602Z,19.52
2023-03-04T15:36:06.654Z,14.77
2023-03-04T15:38:36.857Z,19.52
2023-03-04T15:41:06.662Z,14.68
2023-03-04T15:43:38.600Z,16.38
2023-03-04T15:46:08.088Z,17.50
2023-03-04T15:48:37.400Z,13.45
2023-03-04T15:51:14.993Z,15.73
2023-03-04T15:53:50.611Z,16.15
2023-03-04T15:56:23.610Z,17.45
2023-03-04T15:58:57.650Z,17.05
2023-03-04T16:01:30.817Z,14.52
2023-03-04T16:04:00.209Z,15.70
2023-03-04T16:06:33.068Z,15.25
2023-03-04T16:09:07.480Z,13.48
2023-03-04T16:11:45.913Z,15.23
2023-03-04T16:14:17.102Z,19.88
2023-03-04T16:16:48.155Z,17.13
2023-03-04T16:19:16.919Z,16.77
2023-03-04T16:21:46.859Z,14.07
2023-03-04T16:24:22.030Z,13.73
2023-03-04T16:26:50.622Z,14.70
2023-03-04T16:29:19.991Z,15.25
2023-03-04T16:31:48.946Z,15.23
2023-03-04T16:34:17.979Z,18.13
2023-03-04T16:36:49.829Z,13.80
2023-03-04T16:39:24.054Z,13.20
2023-03-04T16:41:53.351Z,14.10
2023-03-04T16:44:22.283Z,13.02
2023-03-04T16:46:51.787Z,14.32
2023-03-04T16:49:20.422Z,11.98
2023-03-04T16:51:52.311Z,15.25
2023-03-04T16:54:31.515Z,12.50
2023-03-04T16:57:01.861Z,13.90
2023-03-04T16:59:31.099Z,14.80
2023-03-04T17:02:01.354Z,21.13
2023-03-04T17:04:30.972Z,47.50
2023-03-04T17:07:01.269Z,20.17
2023-03-04T17:09:31.861Z,12.18
2023-03-04T17:12:00.388Z,11.85
2023-03-04T17:14:30.094Z,14.52
2023-03-04T17:16:59.573Z,13.95
2023-03-04T17:19:29.004Z,11.88
2023-03-04T17:21:59.292Z,12.52
2023-03-04T17:24:29.318Z,11.38
2023-03-04T17:26:59.592Z,10.60
2023-03-04T17:29:29.741Z,10.35
2023-03-04T17:31:59.248Z,11.30
2023-03-04T17:34:28.493Z,14.38
2023-03-04T17:36:58.796Z,12.20
2023-03-04T17:39:35.658Z,14.13
2023-03-04T17:42:08.793Z,12.63
2023-03-04T17:44:38.901Z,12.65
2023-03-04T17:47:09.247Z,9.70
2023-03-04T17:49:39.050Z,12.98
2023-03-04T17:52:10.191Z,10.93
2023-03-04T17:54:41.034Z,9.20
2023-03-04T17:57:12.296Z,9.57
2023-03-04T17:59:42.029Z,13.38
2023-03-04T18:02:18.079Z,11.25
2023-03-04T18:04:49.195Z,11.00
2023-03-04T18:07:18.941Z,12.40
2023-03-04T18:09:52.996Z,12.35
2023-03-04T18:12:24.052Z,14.35
2023-03-04T18:14:54.043Z,12.02
2023-03-04T18:17:24.054Z,11.15
2023-03-04T18:19:53.916Z,11.07
2023-03-04T18:22:22.698Z,10.65
2023-03-04T18:24:51.981Z,10.60
2023-03-04T18:27:26.815Z,25.45
2023-03-04T18:29:58.441Z,13.18
2023-03-04T18:32:38.766Z,11.35
2023-03-04T18:35:16.241Z,12.38
2023-03-04T18:37:46.126Z,10.15
2023-03-04T18:40:18.917Z,13.13
2023-03-04T18:42:51.053Z,12.98
2023-03-04T18:45:22.530Z,18.77
2023-03-04T18:47:54.333Z,20.88
2023-03-04T18:50:25.001Z,16.50
2023-03-04T18:52:55.887Z,19.80
2023-03-04T18:55:28.803Z,15.80
2023-03-04T18:58:01.531Z,13.68
2023-03-04T19:00:35.204Z,15.13
2023-03-04T19:03:10.545Z,14.15
2023-03-04T19:05:42.389Z,17.45
2023-03-04T19:08:13.866Z,13.75
2023-03-04T19:10:44.361Z,13.93
2023-03-04T19:13:19.207Z,15.40
2023-03-04T19:15:49.118Z,13.77
2023-03-04T19:18:19.504Z,12.77
2023-03-04T19:20:49.639Z,11.20
2023-03-04T19:23:24.500Z,15.20
2023-03-04T19:25:54.653Z,13.65
2023-03-04T19:28:26.820Z,10.90
2023-03-04T19:30:59.548Z,10.25
2023-03-04T19:33:29.931Z,12.32
2023-03-04T19:36:00.072Z,13.57
2023-03-04T19:38:31.101Z,10.90
2023-03-04T19:41:01.349Z,10.18
2023-03-04T19:43:37.436Z,12.45
2023-03-04T19:46:09.278Z,9.63
2023-03-04T19:48:40.394Z,13.13
2023-03-04T19:51:17.975Z,12.50
2023-03-04T19:53:51.921Z,9.60
2023-03-04T19:56:23.990Z,8.85
2023-03-04T19:58:58.627Z,13.77
2023-03-04T20:01:31.750Z,8.93
2023-03-04T20:04:06.672Z,9.25
2023-03-04T20:06:39.080Z,12.10
2023-03-04T20:09:10.134Z,8.80
2023-03-04T20:11:54.944Z,12.27
2023-03-04T20:14:29.523Z,9.20
2023-03-04T20:17:03.075Z,10.07
2023-03-04T20:19:34.563Z,7.75
2023-03-04T20:22:06.150Z,8.23
2023-03-04T20:24:37.073Z,7.28
2023-03-04T20:27:07.113Z,10.85
2023-03-04T20:29:37.815Z,11.13
2023-03-04T20:32:09.301Z,6.50
2023-03-04T20:34:40.134Z,9.45
2023-03-04T20:37:10.830Z,8.95
2023-03-04T20:39:41.089Z,10.77
2023-03-04T20:42:11.616Z,8.45
2023-03-04T20:44:43.226Z,9.80
2023-03-04T20:47:13.384Z,10.75
2023-03-04T20:49:44.800Z,9.15
2023-03-04T20:52:14.973Z,19.67
2023-03-04T20:54:45.199Z,8.80
2023-03-04T20:57:16.693Z,8.95
2023-03-04T20:59:50.857Z,8.13
2023-03-04T21:02:21.116Z,8.30
2023-03-04T21:04:50.426Z,8.02
2023-03-04T21:07:19.857Z,10.73
2023-03-04T21:09:50.515Z,10.60
2023-03-04T21:12:23.139Z,9.68
2023-03-04T21:14:53.745Z,12.93
2023-03-04T21:17:24.843Z,7.90
2023-03-04T21:19:54.108Z,9.52
2023-03-04T21:22:23.929Z,9.43
2023-03-04T21:24:52.865Z,12.65
2023-03-04T21:27:21.762Z,9.43
2023-03-04T21:29:53.531Z,11.43
2023-03-04T21:32:29.021Z,10.70
2023-03-04T21:34:59.210Z,9.52
2023-03-04T21:37:28.405Z,15.30
2023-03-04T21:39:58.257Z,12.38
2023-03-04T21:42:27.587Z,11.55
2023-03-04T21:44:58.222Z,11.05
2023-03-04T21:47:29.966Z,9.25
2023-03-04T21:49:59.066Z,11.43
2023-03-04T21:52:28.175Z,10.98
2023-03-04T21:54:57.370Z,8.75
2023-03-04T21:57:26.368Z,9.13
2023-03-04T21:59:56.614Z,10.15
2023-03-04T22:02:25.397Z,14.15
2023-03-04T22:04:54.955Z,9.63
2023-03-04T22:07:24.114Z,10.27
2023-03-04T22:09:54.311Z,11.55
2023-03-04T22:12:22.900Z,10.30
2023-03-04T22:14:51.593Z,13.87
2023-03-04T22:17:21.563Z,11.13
2023-03-04T22:19:50.110Z,11.07
2023-03-04T22:22:19.157Z,11.88
2023-03-04T22:24:47.657Z,14.15
2023-03-04T22:27:16.213Z,10.83
2023-03-04T22:29:44.647Z,19.88
2023-03-04T22:32:13.113Z,11.80
2023-03-04T22:34:42.944Z,13.90
2023-03-04T22:37:11.377Z,10.93
2023-03-04T22:39:39.888Z,12.35
2023-03-04T22:42:11.478Z,13.55
2023-03-04T22:44:39.950Z,14.13
2023-03-04T22:47:08.579Z,15.02
2023-03-04T22:49:37.954Z,12.32
2023-03-04T22:52:07.822Z,12.90
2023-03-04T22:54:36.271Z,12.32
2023-03-04T22:57:04.871Z,13.32
2023-03-04T22:59:33.778Z,15.35
2023-03-04T23:02:02.244Z,12.65
2023-03-04T23:04:30.698Z,13.15
2023-03-04T23:06:59.178Z,14.10
2023-03-04T23:09:29.114Z,11.73
2023-03-04T23:11:57.588Z,12.80
2023-03-04T23:14:26.070Z,19.20
2023-03-04T23:16:54.707Z,12.57
2023-03-04T23:19:23.143Z,11.55
2023-03-04T23:21:51.671Z,11.30
2023-03-04T23:24:20.496Z,12.18
2023-03-04T23:26:52.409Z,13.77
2023-03-04T23:29:20.824Z,14.32
2023-03-04T23:31:50.479Z,15.60
2023-03-04T23:34:19.006Z,13.13
2023-03-04T23:36:47.468Z,11.73
2023-03-04T23:39:16.244Z,12.82
2023-03-04T23:41:44.765Z,13.10
2023-03-04T23:44:15.049Z,11.65
2023-03-04T23:46:44.035Z,14.63
2023-03-04T23:49:17.104Z,26.17
2023-03-04T23:51:46.739Z,20.45
2023-03-04T23:54:16.128Z,12.68
2023-03-04T23:56:44.754Z,11.73
2023-03-04T23:59:14.575Z,11.52
